Aviation Digital Data Service (ADDS)

Output produced by METARs form (1839 UTC 18 June 2019)
found at http://www.aviationweather.gov/metar/data/
 
KAIG 181835Z AUTO 27009G15KT 10SM SCT040 SCT050 22/13 A2993 RMK AO2 T02180125
KATW 181745Z 24006KT 10SM SCT018 SCT027 OVC060 21/15 A2992
KATW 181739Z 1818/1918 23005KT P6SM VCSH BKN020 OVC060 
     TEMPO 1818/1822 5SM -TSRA BR SCT020CB BKN060 
     FM182200 35006KT P6SM VCSH SCT017 BKN035 
     FM190200 02005KT P6SM SCT015 BKN035 
     FM190600 03006KT P6SM SCT009 OVC015 
     TEMPO 1907/1911 3SM BR BKN009 
     FM191100 03008KT P6SM FEW009 OVC018 
     FM191500 03008KT P6SM BKN030
       
KASX 181753Z AUTO 03007KT 10SM CLR 18/13 A2996 RMK AO2 SLP148 T01780133 10178 20117 58004
KDLL 181835Z AUTO 25005KT 10SM -DZ SCT022 BKN028 OVC043 21/16 A2994 RMK AO2 T02100161
KBCK 181835Z AUTO 32005KT 10SM SCT047 BKN050 24/12 A2992 RMK AO2 T02400120
KOVS 181753Z AUTO 22006KT FEW027 SCT037 BKN100 22/18 A2995 RMK AO2 RAB14E47 SLP142 P0000 60002 T02170178 10217 20167 58005
KBUU 181835Z AUTO 00000KT 10SM CLR 23/16 A2993 RMK AO2 T02340161
KY23 181835Z AUTO 00000KT 10SM SCT043 SCT060 OVC070 20/12 A2994 RMK AO2 T02020118
KCLI 181835Z AUTO 17004KT 10SM SCT075 23/16 A2990 RMK AO2 T02250161
KUBE 181835Z AUTO 26004KT 10SM SCT034 SCT048 OVC080 19/10 A2995 RMK AO2
KEGV 181835Z AUTO 31011G15KT 10SM OVC060 19/09 A2994 RMK AO2 T01890092
K57C 181835Z AUTO 33003KT 10SM SCT039 SCT120 25/15 A2993 RMK AO2 T02450154
KFLD 181753Z AUTO 25004KT 10SM SCT022 24/17 A2993 RMK AO2 SLP132 T02390172 10239 20161 58006
KGRB 181833Z 30003KT 3SM -RA BR BKN025 BKN044 OVC070 20/18 A2992 RMK AO2 P0009 T02000183
KGRB 181739Z 1818/1918 23005KT P6SM VCSH SCT025 OVC060 
     TEMPO 1818/1822 5SM -TSRA BR BKN025CB 
     FM182200 35006KT P6SM VCSH SCT017 BKN035 
     FM190200 02005KT P6SM SCT015 BKN035 
     FM190600 03006KT P6SM SCT009 OVC015 
     TEMPO 1907/1911 3SM BR BKN009 
     FM191100 03008KT P6SM FEW009 OVC018 
     FM191500 03008KT P6SM BKN030
       
KHYR 181753Z AUTO 33003KT 10SM OVC060 19/11 A2995 RMK AO2 SLP144 T01890111 10194 20111 58006
KHYR 181728Z 1818/1918 VRB04KT P6SM VCSH SCT030 OVC060 
     FM190100 VRB03KT P6SM SCT050 
     FM190900 00000KT 3SM BR BKN050 
     FM191300 00000KT P6SM BKN070
       
KJVL 181745Z 32006KT 10SM SCT040 BKN100 26/16 A2994
KUNU 181835Z AUTO 24005KT 10SM SCT034 SCT040 SCT048 23/16 A2994 RMK AO2 T02300160 TSNO
KENW 181753Z 11010KT 10SM BKN032 23/17 A2995 RMK AO2 SLP140 T02330172 10244 20144 58010
KENW 181720Z 1818/1918 12005KT P6SM SCT025 SCT120 
     FM182200 27005KT P6SM VCTS SCT025 BKN070CB 
     FM190300 00000KT P6SM BKN050 
     FM190900 VRB03KT 4SM BR BKN011 
     FM191600 03007KT P6SM OVC012
       
KLSE 181753Z 24006KT 10SM BKN080 24/12 A2993 RMK AO2 SLP128 60001 T02390122 10250 20189 57009 $
KLSE 181733Z 1818/1918 30004KT P6SM SCT040 BKN080 
     FM190100 VRB03KT P6SM SCT100 
     FM191300 02004KT P6SM BKN035 
     FM191600 04005KT P6SM BKN028
       
KRCX 181835Z AUTO 34009KT 10SM BKN046 OVC055 20/11 A2997 RMK AO2 T01970114
KLNL 181835Z AUTO 31007KT 10SM BKN050 OVC070 18/10 A2996 RMK AO2 T01810097
K4R5 181835Z AUTO 11003KT 10SM CLR 16/11 A2996 RMK AO2 T01560106
KLNR 181756Z AUTO 26007KT 10SM FEW021 FEW047 SCT120 22/17 A2994 RMK AO2 RAE10B37E47 SLP133 P0000 60001 T02170167 10217 20156 56006
KMSN 181753Z VRB04KT 10SM SCT032 BKN110 BKN170 24/16 A2993 RMK AO2 SLP132 T02390156 10244 20167 58009
KMSN 181720Z 1818/1918 24005KT P6SM VCTS SCT025 BKN090CB 
     TEMPO 1818/1821 -RA BKN035 
     FM190100 30005KT P6SM VCSH BKN100 
     FM190800 00000KT P6SM BKN040 
     FM191100 VRB03KT 4SM BR BKN011 
     FM191600 VRB04KT P6SM BKN011
       
KD25 181835Z AUTO 30006KT 10SM SCT026 SCT040 OVC050 16/10 A2995 RMK AO2 T01640103
KMTW 181756Z AUTO 15007KT 10SM FEW040 OVC050 16/13 A2994 RMK AO2 SLP140 T01610133 10194 20133 58004
KMTW 181739Z 1818/1918 14010KT P6SM VCSH BKN035 
     TEMPO 1818/1822 5SM -TSRA BR BKN025CB 
     FM182200 35006KT P6SM VCSH SCT017 BKN035 
     FM190200 02005KT P6SM SCT015 BKN035 
     FM190600 03006KT 5SM BR SCT009 OVC015 
     TEMPO 1907/1911 1SM BR BKN009 
     FM191100 03008KT 5SM BR FEW009 OVC018 
     FM191500 03008KT P6SM BKN030
       
KMFI 181754Z AUTO 29007KT 250V320 10SM FEW038 SCT047 22/13 A2993 RMK AO2 SLP132 60000 T02220133 10228 20167 56006
KMDZ 181835Z AUTO 28006KT 10SM OVC065 20/10 A2994 RMK AO2 T01960104 TSNO
KLUM 181835Z AUTO 28009KT 10SM BKN048 BKN065 BKN075 20/10 A2993 RMK AO2 T02010100
KRRL 181835Z AUTO 26005KT 10SM BKN055 22/11 A2993 RMK AO2 T02190107 TSNO
KC29 181815Z AUTO 28006KT 10SM SCT031 BKN035 BKN042 24/16 A2995 RMK AO1 T02360163
KMKE 181752Z 12006KT 10SM FEW025 SCT140 BKN250 23/17 A2994 RMK AO2 SLP135 T02330167 10233 20139 58010
KMKE 181720Z 1818/1924 14006KT P6SM SCT150 
     FM182100 27005KT P6SM VCTS SCT025 BKN070CB 
     FM190200 VRB03KT P6SM BKN040 
     FM191100 02005KT 4SM BR BKN011 
     FM191700 03009KT P6SM BKN011 
     FM192300 03008KT P6SM BKN035
       
KMWC 181745Z 00000KT 10SM SCT034 SCT043 24/13 A2994
KMRJ 181835Z AUTO 29007KT 10SM SCT026 SCT031 SCT055 24/17 A2995 RMK AO2
KARV 181815Z AUTO 30007KT 10SM SCT041 BKN048 OVC060 18/10 A2995 RMK AO2 T01800099
KEFT 181835Z AUTO 25005KT 10SM BKN031 24/15 A2994 RMK AO2 T02370149
KCWA 181747Z 25009KT 10SM BKN042 23/13 A2994
KCWA 181739Z 1818/1918 30008KT P6SM VCSH SCT030 BKN040 
     FM182300 33006KT P6SM SCT035 BKN050 
     FM190300 01003KT P6SM SCT035 BKN050 
     FM190800 05004KT P6SM SCT008 BKN050 
     TEMPO 1909/1913 BKN008 
     FM191300 06005KT P6SM BKN010 OVC040 
     FM191600 05005KT P6SM SCT015 BKN045
       
K82C 181835Z AUTO 00000KT 10SM SCT033 BKN055 OVC080 21/18 A2993 RMK AO2 T02070178
KRNH 181835Z AUTO 29007KT 10SM SCT040 SCT060 OVC070 21/10 A2995 RMK AO2 T02140100
KRNH 181739Z 1818/1918 30006KT P6SM BKN050 
     FM190000 35003KT P6SM SCT080 
     FM190600 04003KT P6SM SKC 
     FM191400 03003KT P6SM FEW050 SCT250
       
KOCQ 181835Z AUTO 20004KT 10SM BKN047 OVC060 19/16 A2991 RMK AO1 T01910163
KOEO 181835Z AUTO 33004KT 10SM SCT040 BKN049 OVC075 21/12 A2997 RMK AO2 T02110118
KOSH 181753Z 21007KT 10SM FEW022 23/17 A2992 RMK AO2 SLP124 T02330172 10233 20161 58008
KPBH 181835Z AUTO 32005KT 10SM SCT050 OVC070 18/11 A2995 RMK AO2 T01830108
KPVB 181835Z AUTO 29005KT 10SM SCT027 SCT050 23/18 A2995 RMK AO1 T02340178
KPDC 181835Z AUTO 00000KT 10SM SCT016 SCT022 OVC028 21/18 A2994 RMK AO2 T02130179
KRAC 181753Z AUTO 12009KT 10SM CLR 20/14 A2996 RMK AO2 SLP146 T02000144 10211 20150 58008
KC35 181835Z AUTO 24005KT 10SM -DZ SCT021 BKN031 OVC039 21/19 A2994 RMK AO2 T02050191
KRHI 181753Z AUTO 28011KT 10SM OVC060 23/09 A2994 RMK AO2 SLP131 T02330089 10233 20172 58005
KRHI 181739Z 1818/1918 27007G16KT P6SM VCSH SCT030 BKN050 
     TEMPO 1818/1821 BKN030 
     FM182100 32006KT P6SM SCT025 BKN050 
     FM190000 36005KT P6SM SCT025 BKN050 
     FM190700 VRB03KT P6SM SCT007 BKN025 
     TEMPO 1908/1912 3SM BR BKN007 
     FM191200 VRB03KT P6SM BKN008 OVC030 
     FM191500 06005KT P6SM SCT015 BKN035
       
KRPD 181835Z AUTO 32006KT 7SM SCT043 BKN050 OVC080 21/11 A2995 RMK AO2 T02100106
KEZS 181835Z AUTO 16004KT 10SM SCT025 BKN055 24/17 A2990 RMK AO2 T02440165
KSBM 181753Z AUTO 13008KT 10SM SCT034 BKN050 OVC100 20/15 A2993 RMK AO2 RAB22E35 SLP135 P0000 60000 T02000150 10233 20133 58005
KRZN 181835Z AUTO 00000KT 10SM SCT037 SCT044 BKN075 21/09 A2994 RMK AO2 T02050093
KOLG 181835Z AUTO 30007KT 10SM BKN050 BKN065 OVC080 19/11 A2995 RMK AO1
KCMY 181835Z AUTO 00000KT 10SM SCT030 BKN075 BKN090 22/15 A2993 RMK AO2 T02200151
KSTE 181815Z AUTO 28006KT 10SM SCT034 BKN055 22/13 A2993 RMK AO2 T02200134
KSUE 181756Z AUTO 17009KT 10SM OVC075 17/14 A2993 RMK AO2 SLP134 60000 T01720139 10206 20133 56006
KSUW 181835Z AUTO 00000KT 10SM SCT070 OVC090 14/10 A2996 RMK AO2 T01370095
KTKV 181835Z AUTO 28007KT 10SM SCT050 OVC060 20/10 A2994 RMK AO2 T02020097 PWINO
KY51 181835Z AUTO 00000KT 10SM OVC033 20/17 A2996 RMK AO1 T01950173
KRYV 181835Z AUTO 20005KT 10SM SCT042 SCT048 25/15 A2992 RMK AO2 T02500150
KUES 181745Z 09003KT 10SM BKN035 23/14 A2995
KUES 181720Z 1818/1918 VRB04KT P6SM SCT025 SCT120 
     FM182100 27005KT P6SM VCTS SCT025 BKN070CB 
     FM190200 00000KT P6SM BKN040 
     FM191100 00000KT 4SM BR BKN011 
     FM191700 04007KT P6SM BKN012
       
KPCZ 181835Z AUTO 23003KT 10SM SCT029 BKN044 BKN055 22/17 A2992 RMK AO2 T02200174
KAUW 181754Z AUTO 30011G16KT 10SM BKN043 BKN050 22/12 A2991 RMK AO2 SLP130 T02170117 10233 20161 56007
KAUW 181739Z 1818/1918 28009KT P6SM VCSH SCT035 BKN050 
     FM182300 33006KT P6SM SCT035 BKN050 
     FM190300 01003KT P6SM SCT035 BKN050 
     FM190800 05004KT P6SM SCT008 BKN050 
     TEMPO 1909/1913 BKN008 
     FM191300 06005KT P6SM BKN010 OVC040 
     FM191600 05005KT P6SM SCT015 BKN045
       
KY50 181756Z AUTO 27006KT 10SM SCT030 OVC040 20/18 A2994 RMK AO2 RAE32 SLP160 P0000 6//// T02000183 10211 20172 56005 $
KETB 181815Z AUTO 25006KT 10SM BKN040 BKN047 BKN070 25/15 A2992 RMK AO2
KISW 181754Z AUTO VRB05KT 10SM FEW032 SCT049 BKN060 24/16 A2993 RMK AO2 SLP132 60000 T02390156 10239 20172 58008